Time;durP1;ratioP1;P1;durP2;ratioP2;P2;SDS_P1;SDS_P2;PMS_P1;PMS_P2;Temp;Humidity;BMP_temperature;BMP_pressure;BME280_temperature;BME280_humidity;BME280_pressure;Samples;Min_cycle;Max_cycle;Signal;HPM_P1;HPM_P2
2023/09/20 00:02:17;;;;;;;16.20;6.50;;;;;;;10.74;100.00;101481.23;105263;1264;59724;-53
2023/09/20 00:06:17;;;;;;;14.00;6.10;;;;;;;10.73;100.00;101520.06;102758;1291;601268;-50
2023/09/20 00:08:45;;;;;;;8.90;5.20;;;;;;;10.68;100.00;101519.58;105040;1269;60439;-51
2023/09/20 00:11:15;;;;;;;13.30;6.40;;;;;;;10.65;100.00;101530.45;104946;1264;59289;-53
2023/09/20 00:13:43;;;;;;;15.20;6.80;;;;;;;10.62;100.00;101544.79;104939;1264;71004;-51
2023/09/20 00:16:11;;;;;;;14.70;6.40;;;;;;;10.58;100.00;101560.33;104855;1264;65127;-49
2023/09/20 00:18:39;;;;;;;12.70;5.80;;;;;;;10.53;100.00;101570.86;104908;1265;71432;-52
2023/09/20 00:21:07;;;;;;;8.20;6.30;;;;;;;10.48;100.00;101581.21;105094;1266;238202;-60
2023/09/20 00:23:35;;;;;;;14.30;7.10;;;;;;;10.42;100.00;101584.65;105226;1263;59286;-52
2023/09/20 00:26:03;;;;;;;17.60;7.40;;;;;;;10.39;100.00;101594.64;105223;1265;71605;-50
2023/09/20 00:28:31;;;;;;;14.10;6.50;;;;;;;10.34;100.00;101599.64;105236;1263;63150;-51
2023/09/20 00:30:59;;;;;;;10.70;6.50;;;;;;;10.30;100.00;101601.87;105206;1263;71471;-50
2023/09/20 00:33:29;;;;;;;13.70;6.70;;;;;;;10.28;100.00;101606.19;105158;1266;61672;-49
2023/09/20 00:35:57;;;;;;;14.60;7.00;;;;;;;10.23;100.00;101610.84;105219;1268;59640;-48
2023/09/20 00:38:25;;;;;;;24.10;7.60;;;;;;;10.19;100.00;101615.14;105169;1264;70935;-49
2023/09/20 00:40:52;;;;;;;14.60;7.20;;;;;;;10.18;100.00;101621.87;105002;1266;63149;-51
2023/09/20 00:43:23;;;;;;;12.60;6.10;;;;;;;10.16;100.00;101627.38;104990;1266;70795;-50
2023/09/20 00:45:51;;;;;;;14.40;6.10;;;;;;;10.14;100.00;101630.83;105010;1268;59737;-49
2023/09/20 00:48:19;;;;;;;19.40;6.80;;;;;;;10.11;100.00;101633.75;104995;1265;59655;-49
2023/09/20 00:50:48;;;;;;;13.80;6.90;;;;;;;10.08;100.00;101637.37;105004;1264;73061;-49
2023/09/20 00:53:16;;;;;;;10.50;6.20;;;;;;;10.05;100.00;101641.51;104917;1267;63520;-50
2023/09/20 00:55:44;;;;;;;16.60;7.10;;;;;;;10.02;100.00;101647.19;105009;1266;72626;-49
2023/09/20 00:58:16;;;;;;;13.20;6.50;;;;;;;9.98;100.00;101650.80;104982;1266;59659;-50
2023/09/20 01:00:43;;;;;;;14.90;6.40;;;;;;;9.95;100.00;101656.13;105034;1268;59514;-50
2023/09/20 01:03:15;;;;;;;12.50;6.40;;;;;;;9.92;100.00;101655.25;104831;1266;71829;-50
2023/09/20 01:05:46;;;;;;;12.70;7.10;;;;;;;9.92;100.00;101660.42;105017;1264;63132;-48
2023/09/20 01:08:19;;;;;;;18.30;8.10;;;;;;;9.93;100.00;101660.77;105204;1268;71394;-49
2023/09/20 01:10:47;;;;;;;11.00;6.90;;;;;;;9.92;100.00;101664.73;105248;1262;60381;-51
2023/09/20 01:13:15;;;;;;;9.60;6.40;;;;;;;9.91;100.00;101663.88;105212;1266;59578;-50
2023/09/20 01:15:44;;;;;;;12.80;7.20;;;;;;;9.91;100.00;101664.22;105230;1268;73057;-48
2023/09/20 01:18:12;;;;;;;11.40;7.20;;;;;;;9.90;100.00;101669.21;105202;1263;63496;-50
2023/09/20 01:20:40;;;;;;;11.50;6.90;;;;;;;9.88;100.00;101668.00;105142;1262;71418;-51
2023/09/20 01:23:08;;;;;;;14.60;7.00;;;;;;;9.86;100.00;101673.86;105186;1265;60400;-51
2023/09/20 01:25:40;;;;;;;13.60;6.30;;;;;;;9.84;100.00;101673.33;105232;1265;59602;-50
2023/09/20 01:28:09;;;;;;;10.10;6.90;;;;;;;9.83;100.00;101672.30;105229;1261;70812;-50
2023/09/20 01:30:41;;;;;;;12.30;7.40;;;;;;;9.83;100.00;101676.09;105256;1265;64405;-50
2023/09/20 01:33:09;;;;;;;14.20;6.90;;;;;;;9.83;100.00;101673.49;105235;1263;72672;-51
2023/09/20 01:35:38;;;;;;;12.40;6.30;;;;;;;9.84;100.00;101670.39;105219;1262;60393;-51
2023/09/20 01:38:07;;;;;;;11.00;6.70;;;;;;;9.85;100.00;101672.48;105254;1265;59663;-50
2023/09/20 01:40:36;;;;;;;13.90;6.70;;;;;;;9.85;100.00;101671.63;105237;1265;72807;-51
2023/09/20 01:43:04;;;;;;;11.10;6.00;;;;;;;9.85;100.00;101673.33;105241;1265;63052;-49
2023/09/20 01:45:34;;;;;;;10.00;6.40;;;;;;;9.86;100.00;101674.02;105231;1263;73167;-50
2023/09/20 01:48:06;;;;;;;10.60;6.80;;;;;;;9.87;100.00;101673.86;105182;1264;60738;-50
2023/09/20 01:50:34;;;;;;;10.30;6.40;;;;;;;9.89;100.00;101671.27;105208;1265;59552;-51
2023/09/20 01:53:08;;;;;;;10.50;7.20;;;;;;;9.90;100.00;101668.36;105292;1260;72996;-51
2023/09/20 01:55:37;;;;;;;9.50;6.30;;;;;;;9.90;100.00;101669.90;105249;1266;63125;-50
2023/09/20 01:58:05;;;;;;;9.10;6.10;;;;;;;9.88;100.00;101670.77;105201;1262;71438;-51
2023/09/20 02:00:39;;;;;;;12.60;6.70;;;;;;;9.85;100.00;101672.47;105204;1267;60030;-50
2023/09/20 02:03:16;;;;;;;11.70;7.40;;;;;;;9.79;100.00;101677.45;105246;1265;59750;-48
2023/09/20 02:05:47;;;;;;;10.30;7.30;;;;;;;9.73;100.00;101677.09;105178;1262;70797;-51
2023/09/20 02:08:16;;;;;;;13.80;6.80;;;;;;;9.70;100.00;101678.44;105231;1263;64390;-49
2023/09/20 02:10:45;;;;;;;12.20;7.70;;;;;;;9.69;100.00;101678.45;105523;1256;72459;-50
2023/09/20 02:13:16;;;;;;;12.60;7.80;;;;;;;9.66;100.00;101676.18;105408;1259;59679;-51
2023/09/20 02:15:45;;;;;;;15.50;7.60;;;;;;;9.61;100.00;101671.86;105515;1262;59624;-52
2023/09/20 02:18:13;;;;;;;14.00;6.90;;;;;;;9.60;100.00;101669.42;105553;1261;71502;-51
2023/09/20 02:20:41;;;;;;;13.40;6.70;;;;;;;9.59;100.00;101663.57;105494;1262;64397;-51
2023/09/20 02:23:12;;;;;;;17.40;6.90;;;;;;;9.59;100.00;101661.50;105554;1260;70459;-47
2023/09/20 02:25:43;;;;;;;12.00;6.60;;;;;;;9.59;100.00;101656.16;105654;1257;59713;-50
2023/09/20 02:28:11;;;;;;;13.50;7.20;;;;;;;9.60;100.00;101654.45;105648;1260;60134;-48
2023/09/20 02:30:41;;;;;;;10.90;6.90;;;;;;;9.63;100.00;101643.25;105537;1257;72325;-48
2023/09/20 02:33:14;;;;;;;10.10;6.50;;;;;;;9.66;100.00;101635.85;105557;1256;64494;-49
2023/09/20 02:35:44;;;;;;;15.30;7.20;;;;;;;9.72;100.00;101633.29;105577;1257;71295;-49
2023/09/20 02:38:11;;;;;;;7.70;7.00;;;;;;;9.76;100.00;101633.13;105590;1258;59827;-50
2023/09/20 02:40:39;;;;;;;10.20;7.50;;;;;;;9.78;100.00;101630.90;105470;1262;59614;-49
2023/09/20 02:43:08;;;;;;;12.60;6.70;;;;;;;9.75;100.00;101631.77;105394;1256;71702;-49
2023/09/20 02:45:39;;;;;;;9.70;6.40;;;;;;;9.74;100.00;101635.02;105527;1262;64400;-49
2023/09/20 02:48:08;;;;;;;9.10;6.60;;;;;;;9.72;100.00;101632.59;105512;1256;72602;-48
2023/09/20 02:50:36;;;;;;;7.70;6.40;;;;;;;9.70;100.00;101632.07;105552;1259;59618;-50
2023/09/20 02:53:07;;;;;;;12.60;7.10;;;;;;;9.71;100.00;101631.03;105609;1257;59716;-48
2023/09/20 02:55:35;;;;;;;18.80;5.90;;;;;;;9.73;100.00;101627.27;105542;1261;73015;-48
2023/09/20 02:58:04;;;;;;;8.30;6.00;;;;;;;9.78;100.00;101622.28;105575;1256;65293;-49
2023/09/20 03:00:32;;;;;;;7.70;6.00;;;;;;;9.86;100.00;101624.20;105608;1256;71424;-49
2023/09/20 03:03:02;;;;;;;10.80;7.50;;;;;;;9.91;100.00;101621.12;105666;1256;59650;-48
2023/09/20 03:05:35;;;;;;;12.40;6.20;;;;;;;9.93;100.00;101624.73;105564;1256;59535;-48
2023/09/20 03:08:11;;;;;;;12.20;6.20;;;;;;;9.90;100.00;101628.87;105414;1264;71776;-49
2023/09/20 03:10:43;;;;;;;13.40;7.10;;;;;;;9.85;100.00;101631.44;105588;1256;63642;-49
2023/09/20 03:13:20;;;;;;;12.20;7.20;;;;;;;9.77;100.00;101637.11;105594;1257;72642;-48
2023/09/20 03:15:54;;;;;;;12.70;6.70;;;;;;;9.71;100.00;101640.17;105523;1259;60436;-49
2023/09/20 03:18:25;;;;;;;8.50;5.70;;;;;;;9.66;100.00;101639.98;105521;1262;59981;-49
2023/09/20 03:21:10;;;;;;;8.20;6.00;;;;;;;9.65;100.00;101638.59;105576;1262;71307;-50
2023/09/20 03:23:39;;;;;;;14.30;6.40;;;;;;;9.66;100.00;101633.45;105642;1256;62566;-49
2023/09/20 03:26:09;;;;;;;14.60;7.00;;;;;;;9.70;100.00;101630.00;105555;1259;70464;-50
2023/09/20 03:28:38;;;;;;;12.60;6.00;;;;;;;9.72;100.00;101628.46;105517;1262;60888;-50
2023/09/20 03:31:10;;;;;;;13.40;5.20;;;;;;;9.74;100.00;101629.69;105592;1256;60142;-49
2023/09/20 03:33:39;;;;;;;9.20;6.40;;;;;;;9.79;100.00;101624.70;105543;1262;72085;-49
2023/09/20 03:36:15;;;;;;;10.60;6.30;;;;;;;9.84;100.00;101621.27;105456;1256;63019;-51
2023/09/20 03:38:48;;;;;;;17.10;6.00;;;;;;;9.89;100.00;101617.15;105565;1256;72719;-51
2023/09/20 03:41:16;;;;;;;8.60;5.30;;;;;;;9.91;100.00;101615.77;105588;1257;60754;-48
2023/09/20 03:43:45;;;;;;;14.40;6.70;;;;;;;9.94;100.00;101615.26;105624;1257;59541;-50
2023/09/20 03:46:14;;;;;;;9.20;6.40;;;;;;;9.96;100.00;101616.64;105585;1262;73009;-50
2023/09/20 03:48:43;;;;;;;7.70;6.00;;;;;;;10.01;100.00;101609.25;105437;1264;63610;-49
2023/09/20 03:51:17;;;;;;;6.70;5.90;;;;;;;10.05;100.00;101604.42;105392;1257;72630;-49
2023/09/20 03:53:45;;;;;;;11.40;6.20;;;;;;;10.11;100.00;101600.63;105604;1256;61633;-49
2023/09/20 03:56:17;;;;;;;14.00;5.90;;;;;;;10.15;100.00;101602.02;105345;1256;59537;-50
2023/09/20 03:58:45;;;;;;;8.80;6.70;;;;;;;10.17;100.00;101599.79;105484;1256;73461;-50
2023/09/20 04:01:15;;;;;;;12.10;6.90;;;;;;;10.20;100.00;101601.85;105594;1261;64345;-52
2023/09/20 04:03:45;;;;;;;10.60;5.30;;;;;;;10.27;100.00;101597.39;105573;1258;72699;-51
2023/09/20 04:06:15;;;;;;;7.50;5.90;;;;;;;10.39;100.00;101597.75;105552;1256;60879;-50
2023/09/20 04:08:43;;;;;;;15.20;6.10;;;;;;;10.55;100.00;101595.37;105558;1262;59638;-50
2023/09/20 04:11:12;;;;;;;14.70;6.20;;;;;;;10.70;100.00;101595.35;105571;1257;71863;-50
2023/09/20 04:13:40;;;;;;;8.30;5.90;;;;;;;10.87;100.00;101591.20;105531;1261;63129;-49
2023/09/20 04:16:08;;;;;;;7.40;4.90;;;;;;;11.01;100.00;101588.23;105365;1256;72645;-51
2023/09/20 04:18:37;;;;;;;8.10;5.80;;;;;;;11.11;100.00;101592.17;105624;1256;60552;-50
2023/09/20 04:21:05;;;;;;;9.00;6.20;;;;;;;11.17;100.00;101598.55;105424;1264;60400;-51
2023/09/20 04:23:32;;;;;;;8.60;6.40;;;;;;;11.24;100.00;101607.70;105384;1256;72581;-50
2023/09/20 04:26:00;;;;;;;14.40;6.00;;;;;;;11.28;100.00;101614.94;105605;1259;63264;-50
2023/09/20 04:28:28;;;;;;;9.50;5.30;;;;;;;11.34;100.00;101619.93;105444;1262;72636;-48
2023/09/20 04:30:56;;;;;;;8.20;5.50;;;;;;;11.42;100.00;101621.11;105446;1261;61652;-51
2023/09/20 04:33:23;;;;;;;13.00;5.90;;;;;;;11.54;100.00;101620.56;105484;1262;60404;-50
2023/09/20 04:35:52;;;;;;;9.70;6.60;;;;;;;11.67;100.00;101623.10;105519;1257;73325;-51
2023/09/20 04:38:24;;;;;;;12.90;5.90;;;;;;;11.83;100.00;101621.81;105517;1256;63504;-51
2023/09/20 04:40:52;;;;;;;12.20;5.30;;;;;;;12.02;100.00;101623.29;105469;1256;72610;-53
2023/09/20 04:43:23;;;;;;;10.80;5.20;;;;;;;12.23;100.00;101617.98;105469;1256;61626;-52
2023/09/20 04:45:52;;;;;;;9.40;5.40;;;;;;;12.43;100.00;101618.34;105587;1262;60526;-51
2023/09/20 04:48:20;;;;;;;15.40;5.70;;;;;;;12.63;100.00;101620.10;105577;1262;72948;-52
2023/09/20 04:50:49;;;;;;;10.20;5.60;;;;;;;12.83;100.00;101621.30;105583;1262;63431;-48
2023/09/20 04:53:16;;;;;;;13.40;5.50;;;;;;;13.04;100.00;101617.82;105550;1257;72661;-49
2023/09/20 04:55:44;;;;;;;10.30;5.30;;;;;;;13.25;100.00;101625.75;105514;1262;60521;-50
2023/09/20 04:58:12;;;;;;;6.80;5.80;;;;;;;13.44;100.00;101636.46;105529;1262;60427;-49
2023/09/20 05:00:41;;;;;;;7.30;5.70;;;;;;;13.61;100.00;101640.45;105536;1262;73789;-50
2023/09/20 05:03:14;;;;;;;10.50;5.30;;;;;;;13.77;100.00;101654.30;105440;1256;64447;-51
2023/09/20 05:05:47;;;;;;;10.30;4.90;;;;;;;13.94;100.00;101666.05;105584;1256;72614;-51
2023/09/20 05:08:19;;;;;;;10.20;5.20;;;;;;;14.10;100.00;101683.37;105555;1261;60455;-50
2023/09/20 05:10:47;;;;;;;12.10;5.30;;;;;;;14.25;100.00;101697.92;105568;1258;60406;-49
2023/09/20 05:13:17;;;;;;;9.00;5.70;;;;;;;14.38;100.00;101709.02;105559;1261;72772;-48
2023/09/20 05:15:45;;;;;;;9.50;5.10;;;;;;;14.54;100.00;101710.19;105524;1262;63543;-49
2023/09/20 05:18:14;;;;;;;11.10;4.40;;;;;;;14.71;100.00;101712.71;105398;1257;72700;-49
2023/09/20 05:20:45;;;;;;;7.40;4.60;;;;;;;14.86;100.00;101710.41;105582;1260;60547;-49
2023/09/20 05:23:13;;;;;;;6.40;5.00;;;;;;;15.01;100.00;101699.38;105597;1258;60511;-49
2023/09/20 05:25:42;;;;;;;5.60;5.00;;;;;;;15.16;100.00;101686.77;105570;1258;72564;-50
2023/09/20 05:28:10;;;;;;;8.50;4.60;;;;;;;15.29;100.00;101646.38;105545;1263;63417;-50
2023/09/20 05:30:38;;;;;;;8.60;4.80;;;;;;;15.42;100.00;101593.75;105588;1256;71382;-51
2023/09/20 05:33:07;;;;;;;17.60;5.40;;;;;;;15.56;100.00;101522.16;105572;1262;60543;-50
2023/09/20 05:35:35;;;;;;;6.70;4.10;;;;;;;15.70;100.00;101443.02;105565;1262;60332;-49
2023/09/20 05:38:03;;;;;;;10.60;4.90;;;;;;;15.88;100.00;101360.64;105549;1256;72581;-51
2023/09/20 05:40:30;;;;;;;8.10;4.80;;;;;;;16.02;100.00;101277.05;105624;1258;63115;-51
2023/09/20 05:42:58;;;;;;;5.70;5.10;;;;;;;16.18;100.00;101197.41;105257;1263;71437;-50
2023/09/20 05:45:26;;;;;;;9.90;5.30;;;;;;;16.35;100.00;101130.01;105523;1260;60421;-51
2023/09/20 05:47:54;;;;;;;13.10;5.50;;;;;;;16.53;100.00;101056.98;105609;1261;60643;-50
2023/09/20 05:50:23;;;;;;;7.70;4.30;;;;;;;16.69;100.00;100955.52;105580;1257;72585;-52
2023/09/20 05:52:51;;;;;;;6.50;4.60;;;;;;;16.85;100.00;100867.30;105577;1256;63154;-50
2023/09/20 05:55:20;;;;;;;7.90;4.50;;;;;;;16.97;100.00;100767.69;105563;1263;71486;-50
2023/09/20 05:57:48;;;;;;;11.10;5.40;;;;;;;17.04;100.00;100703.06;105585;1262;60562;-50
2023/09/20 06:00:16;;;;;;;8.20;5.30;;;;;;;17.14;100.00;100677.23;105583;1260;60354;-50
2023/09/20 06:02:44;;;;;;;12.90;6.20;;;;;;;17.25;100.00;100669.42;105608;1262;73863;-49
2023/09/20 06:05:14;;;;;;;5.80;5.00;;;;;;;17.34;100.00;100676.17;105589;1257;63159;-50
2023/09/20 06:07:44;;;;;;;7.70;5.10;;;;;;;17.43;100.00;100685.06;105625;1262;71399;-49
2023/09/20 06:10:12;;;;;;;11.60;5.80;;;;;;;17.52;100.00;100690.58;105551;1262;60368;-51
2023/09/20 06:12:40;;;;;;;7.50;5.10;;;;;;;17.61;100.00;100716.21;105543;1261;60335;-49
2023/09/20 06:15:08;;;;;;;9.50;5.50;;;;;;;17.71;100.00;100751.57;105592;1258;72595;-49
2023/09/20 06:17:36;;;;;;;8.30;5.40;;;;;;;17.83;100.00;100780.20;105605;1260;64341;-51
2023/09/20 06:20:09;;;;;;;9.90;5.30;;;;;;;17.92;100.00;100813.27;105600;1261;71331;-50
2023/09/20 06:22:38;;;;;;;8.00;6.10;;;;;;;18.06;100.00;100837.19;105621;1258;60481;-51
2023/09/20 06:25:06;;;;;;;12.70;6.40;;;;;;;18.18;100.00;100866.52;105570;1261;60376;-51
2023/09/20 06:27:34;;;;;;;16.20;5.70;;;;;;;18.29;100.00;100895.71;105578;1257;72629;-50
2023/09/20 06:30:06;;;;;;;9.90;5.80;;;;;;;18.41;100.00;100922.61;105543;1262;63162;-50
2023/09/20 06:32:37;;;;;;;12.80;6.20;;;;;;;18.56;100.00;100953.96;105604;1257;70768;-50
2023/09/20 06:35:07;;;;;;;15.10;6.50;;;;;;;18.69;100.00;100974.20;105603;1261;60448;-51
2023/09/20 06:37:38;;;;;;;10.40;5.40;;;;;;;18.89;100.00;100978.90;105628;1261;62022;-50
2023/09/20 06:40:22;;;;;;;9.60;5.80;;;;;;;19.12;100.00;100986.09;105545;1262;74113;-51
2023/09/20 06:42:51;;;;;;;12.70;5.60;;;;;;;19.33;100.00;100999.14;105593;1261;63118;-50
2023/09/20 06:45:20;;;;;;;10.90;5.90;;;;;;;19.48;100.00;101008.44;105580;1261;71679;-49
2023/09/20 06:47:47;;;;;;;8.70;5.70;;;;;;;19.62;100.00;101008.46;105602;1262;60534;-52
2023/09/20 06:50:15;;;;;;;13.80;6.00;;;;;;;19.75;100.00;101015.21;105544;1262;60428;-51
2023/09/20 06:52:43;;;;;;;12.20;6.20;;;;;;;19.84;100.00;101029.31;105555;1259;72652;-49
2023/09/20 06:55:16;;;;;;;13.50;5.80;;;;;;;19.91;100.00;101035.30;105587;1258;64436;-50
2023/09/20 06:57:44;;;;;;;9.30;5.70;;;;;;;19.98;100.00;101049.36;105567;1261;71155;-51
2023/09/20 07:00:18;;;;;;;14.30;6.00;;;;;;;20.05;100.00;101054.74;105509;1263;60511;-50
2023/09/20 07:02:46;;;;;;;8.00;5.60;;;;;;;20.23;99.96;101057.95;105586;1261;60552;-51
2023/09/20 07:05:16;;;;;;;9.10;6.20;;;;;;;20.45;98.73;101067.34;105533;1256;72596;-52
2023/09/20 07:07:48;;;;;;;11.70;6.80;;;;;;;20.71;99.11;101071.65;105588;1261;64389;-52
2023/09/20 07:10:16;;;;;;;9.80;5.80;;;;;;;20.90;91.32;101068.29;105570;1261;71397;-51
2023/09/20 07:12:44;;;;;;;11.40;6.40;;;;;;;21.02;88.81;101073.27;105618;1257;60497;-50
2023/09/20 07:15:14;;;;;;;12.40;6.10;;;;;;;21.25;89.96;101087.11;105564;1262;60360;-51
2023/09/20 07:17:45;;;;;;;9.70;5.70;;;;;;;21.50;87.35;101082.96;105547;1261;73815;-50
2023/09/20 07:20:20;;;;;;;10.20;6.20;;;;;;;21.71;82.18;101071.36;105611;1258;63103;-49
2023/09/20 07:22:47;;;;;;;8.40;5.80;;;;;;;21.81;78.81;101073.77;105586;1261;71965;-50
2023/09/20 07:25:19;;;;;;;9.30;5.80;;;;;;;21.85;75.20;101055.48;105591;1261;60560;-51
2023/09/20 07:27:48;;;;;;;24.60;6.30;;;;;;;21.88;74.35;101077.78;105542;1262;60437;-51
2023/09/20 07:30:19;;;;;;;16.80;5.90;;;;;;;21.94;73.71;101085.51;105572;1262;73831;-51
2023/09/20 07:32:47;;;;;;;16.90;6.30;;;;;;;22.07;73.48;101088.82;105623;1266;63097;-53
2023/09/20 07:35:38;;;;;;;12.60;5.20;;;;;;;22.26;72.48;101085.98;105609;1270;71394;-52
2023/09/20 07:38:12;;;;;;;9.30;5.30;;;;;;;22.45;71.71;101080.87;105599;1257;60425;-51
2023/09/20 07:40:40;;;;;;;11.90;6.30;;;;;;;22.70;70.43;101059.39;105319;1271;61289;-51
2023/09/20 07:43:10;;;;;;;14.60;6.00;;;;;;;22.96;68.31;101020.20;105544;1263;73780;-49
2023/09/20 07:45:54;;;;;;;10.00;5.70;;;;;;;23.17;65.82;100956.89;105598;1262;63552;-51
2023/09/20 07:48:24;;;;;;;11.20;5.70;;;;;;;23.24;64.36;100942.21;105595;1263;71382;-52
2023/09/20 07:50:53;;;;;;;13.00;5.40;;;;;;;23.30;64.79;101000.85;109138;1260;58771;-51
2023/09/20 07:53:21;;;;;;;9.70;4.70;;;;;;;23.38;64.61;101004.38;109137;1257;58941;-51
2023/09/20 07:56:06;;;;;;;12.10;5.10;;;;;;;23.50;64.20;101002.56;109098;1256;73189;-51
2023/09/20 07:58:36;;;;;;;14.50;5.10;;;;;;;23.67;63.44;100975.22;109169;1257;63121;-51
2023/09/20 08:01:10;;;;;;;7.60;5.20;;;;;;;23.87;62.31;100941.35;109143;1257;73138;-50
2023/09/20 08:03:53;;;;;;;9.10;5.90;;;;;;;24.03;62.09;100953.50;109164;1256;60162;-50
2023/09/20 08:06:35;;;;;;;10.00;5.20;;;;;;;24.26;62.82;101009.96;109163;1258;58893;-51
2023/09/20 08:09:04;;;;;;;15.40;5.70;;;;;;;24.50;60.70;100883.65;109159;1257;72650;-52
2023/09/20 08:11:32;;;;;;;9.60;4.70;;;;;;;24.60;59.64;100839.23;109133;1260;64831;-51
2023/09/20 08:14:01;;;;;;;10.20;5.00;;;;;;;24.71;60.31;100905.99;109208;1256;72633;-51
2023/09/20 08:16:33;;;;;;;7.10;4.70;;;;;;;24.93;59.63;100874.10;109133;1256;60319;-51
2023/09/20 08:21:48;;;;;;;16.70;5.20;;;;;;;25.30;56.25;100652.32;109153;1256;73841;-51
2023/09/20 09:00:25;;;;;;;8.70;3.20;;;;;;;27.84;45.02;99625.96;105158;1269;59464;-52
2023/09/20 09:02:56;;;;;;;8.30;3.00;;;;;;;27.63;43.17;99327.60;105241;1262;60472;-51
2023/09/20 09:05:27;;;;;;;10.40;2.80;;;;;;;27.47;43.31;99359.27;105244;1264;71710;-51
2023/09/20 09:07:56;;;;;;;10.10;2.90;;;;;;;27.40;43.32;99363.33;105228;1261;64367;-53
2023/09/20 09:10:25;;;;;;;10.20;2.80;;;;;;;27.45;43.86;99491.45;105217;1263;72497;-52
2023/09/20 09:12:53;;;;;;;7.40;2.60;;;;;;;27.51;42.66;99354.73;105215;1266;60267;-50
2023/09/20 09:15:23;;;;;;;8.80;3.30;;;;;;;27.53;42.22;99264.63;105169;1262;60138;-52
2023/09/20 09:17:50;;;;;;;10.90;3.00;;;;;;;27.45;41.71;99200.05;105261;1266;74144;-53
2023/09/20 09:20:19;;;;;;;7.50;3.40;;;;;;;27.39;41.48;99179.41;105264;1263;63127;-51
2023/09/20 09:22:49;;;;;;;13.10;3.20;;;;;;;27.36;41.93;99257.54;105226;1261;72393;-50
2023/09/20 09:25:18;;;;;;;4.80;2.50;;;;;;;27.35;40.55;99108.56;105263;1263;60027;-54
2023/09/20 09:27:46;;;;;;;5.00;2.50;;;;;;;27.33;41.19;99133.24;105678;1258;59682;-53
2023/09/20 09:30:15;;;;;;;10.30;2.50;;;;;;;27.40;42.07;99274.15;105553;1260;74067;-53
2023/09/20 09:32:46;;;;;;;28.60;3.20;;;;;;;27.54;41.24;99205.45;105671;1256;64758;-56
2023/09/20 09:35:19;;;;;;;16.80;2.60;;;;;;;27.78;41.21;99185.38;105664;1260;73556;-50
2023/09/20 09:38:07;;;;;;;11.10;2.70;;;;;;;28.13;40.71;99119.58;105624;1260;59740;-51
2023/09/20 09:40:53;;;;;;;14.20;2.80;;;;;;;28.39;40.18;99026.73;105627;1262;59583;-51
2023/09/20 09:43:23;;;;;;;13.00;2.60;;;;;;;28.53;38.65;98818.80;105595;1256;73013;-52
2023/09/20 09:46:01;;;;;;;24.30;3.00;;;;;;;28.42;38.00;98663.39;105674;1260;65186;-52
2023/09/20 09:48:29;;;;;;;15.30;3.10;;;;;;;28.26;37.37;98580.04;105642;1257;71711;-53
2023/09/20 09:50:58;;;;;;;16.80;3.10;;;;;;;28.20;38.32;98666.62;105637;1262;59676;-52
2023/09/20 09:53:26;;;;;;;25.30;3.30;;;;;;;28.28;38.52;98770.90;105623;1256;60466;-51
2023/09/20 09:55:54;;;;;;;28.50;3.90;;;;;;;28.33;37.86;98646.23;105633;1260;73362;-52
2023/09/20 09:58:21;;;;;;;16.60;3.20;;;;;;;28.31;37.96;98654.19;105369;1265;65220;-51
2023/09/20 10:00:51;;;;;;;20.80;3.80;;;;;;;28.27;37.69;98626.06;105606;1261;71822;-52
2023/09/20 10:03:32;;;;;;;27.30;4.20;;;;;;;28.35;38.32;98708.70;105608;1259;60491;-52
2023/09/20 10:06:11;;;;;;;18.00;3.80;;;;;;;28.47;38.10;98709.98;105588;1262;60487;-52
2023/09/20 10:08:41;;;;;;;24.20;3.50;;;;;;;28.53;37.83;98659.33;105651;1257;72856;-52
2023/09/20 10:11:09;;;;;;;14.90;3.40;;;;;;;28.72;37.71;98662.25;105622;1257;64465;-52
2023/09/20 10:13:38;;;;;;;16.50;3.70;;;;;;;28.77;37.80;98596.00;105614;1260;71755;-52
2023/09/20 10:16:06;;;;;;;13.60;2.80;;;;;;;28.83;37.95;98684.80;105683;1260;60335;-52
2023/09/20 10:18:51;;;;;;;15.60;3.50;;;;;;;28.85;37.11;98544.84;105592;1261;59736;-52
2023/09/20 10:21:26;;;;;;;14.50;3.40;;;;;;;28.79;37.69;98600.38;105571;1257;73323;-52
2023/09/20 10:23:57;;;;;;;12.20;3.00;;;;;;;28.85;38.08;98643.13;105627;1263;63219;-53
2023/09/20 10:26:26;;;;;;;16.70;3.10;;;;;;;29.04;38.03;98684.20;105627;1256;74521;-52
2023/09/20 10:28:58;;;;;;;5.80;3.50;;;;;;;29.22;38.19;98682.67;105660;1260;59701;-52
2023/09/20 10:31:29;;;;;;;11.40;2.60;;;;;;;29.36;37.59;98611.21;105506;1262;60003;-53
2023/09/20 10:33:57;;;;;;;5.80;2.70;;;;;;;29.27;36.71;98478.23;105589;1256;71836;-52
2023/09/20 10:36:27;;;;;;;6.80;2.70;;;;;;;29.03;37.18;98515.55;105627;1256;63194;-52
2023/09/20 10:39:17;;;;;;;7.00;2.50;;;;;;;28.71;37.23;98539.52;105600;1261;72636;-52
2023/09/20 10:41:46;;;;;;;11.10;2.90;;;;;;;28.45;38.08;98678.48;105566;1259;59762;-52
2023/09/20 10:44:35;;;;;;;8.90;3.10;;;;;;;28.33;38.13;98720.41;105591;1256;60701;-51
2023/09/20 10:47:12;;;;;;;6.50;2.50;;;;;;;28.45;38.54;98793.69;105589;1256;71791;-51
2023/09/20 10:49:50;;;;;;;9.70;2.90;;;;;;;28.72;38.92;98857.73;105522;1262;64657;-53
2023/09/20 10:52:30;;;;;;;15.00;3.30;;;;;;;28.93;37.48;98674.39;105638;1260;72998;-54
2023/09/20 10:55:18;;;;;;;22.40;3.90;;;;;;;29.00;37.07;98591.18;105580;1257;59759;-54
2023/09/20 10:57:46;;;;;;;22.90;4.60;;;;;;;29.06;37.00;98590.82;105607;1261;59625;-54
2023/09/20 11:00:14;;;;;;;28.70;4.60;;;;;;;28.95;37.20;98587.51;105590;1260;73322;-54
2023/09/20 11:02:42;;;;;;;58.40;6.50;;;;;;;28.58;36.61;98516.16;105634;1260;64250;-55
2023/09/20 11:05:11;;;;;;;26.60;4.70;;;;;;;28.22;37.60;98626.09;105609;1256;73474;-54
2023/09/20 11:07:39;;;;;;;41.60;5.50;;;;;;;28.00;38.07;98732.31;105634;1262;59989;-53
2023/09/20 11:10:10;;;;;;;24.50;5.30;;;;;;;27.86;38.79;98850.74;105457;1256;59652;-54
2023/09/20 11:12:42;;;;;;;27.90;4.40;;;;;;;27.77;39.54;98967.63;105646;1256;74203;-54
2023/09/20 11:15:10;;;;;;;11.70;4.70;;;;;;;27.87;40.21;99102.83;105608;1263;64458;-53
2023/09/20 11:17:38;;;;;;;10.50;4.10;;;;;;;28.09;40.61;99180.33;105665;1262;73104;-57
2023/09/20 11:20:07;;;;;;;5.70;2.70;;;;;;;28.40;40.17;99155.90;105885;1253;60512;-53
2023/09/20 11:43:44;;;;;;;;;;;;;;;29.12;37.89;98713.80;102591;1295;599396;-52
2023/09/20 11:46:13;;;;;;;22.30;3.60;;;;;;;29.29;35.53;98435.21;104924;1272;60395;-55
2023/09/20 11:48:40;;;;;;;20.40;3.70;;;;;;;29.41;36.05;98456.59;104822;1267;59859;-52
2023/09/20 11:51:10;;;;;;;31.70;3.90;;;;;;;29.61;36.65;98526.48;104641;1273;72025;-51
2023/09/20 11:53:37;;;;;;;27.40;4.10;;;;;;;29.78;36.26;98479.99;105190;1264;63219;-52
2023/09/20 11:56:06;;;;;;;27.00;3.20;;;;;;;29.96;35.00;98316.65;105114;1264;71409;-53
2023/09/20 11:58:36;;;;;;;11.90;3.20;;;;;;;30.05;34.82;98227.11;105078;1268;236354;-54
2023/09/20 12:01:08;;;;;;;65.50;4.70;;;;;;;30.09;33.99;98088.85;105226;1265;59255;-52
2023/09/20 12:03:36;;;;;;;38.40;3.90;;;;;;;30.06;33.58;98004.48;105229;1261;70956;-50
2023/09/20 12:06:04;;;;;;;37.00;3.80;;;;;;;29.92;33.46;97979.67;105229;1265;65048;-53
2023/09/20 12:08:32;;;;;;;25.90;3.40;;;;;;;29.73;35.25;98196.11;105255;1261;72751;-53
2023/09/20 12:11:00;;;;;;;20.00;2.90;;;;;;;29.62;34.55;98170.39;105242;1260;61044;-53
2023/09/20 12:13:29;;;;;;;37.80;4.10;;;;;;;29.34;34.06;98070.58;105240;1261;61001;-53
2023/09/20 12:15:56;;;;;;;60.10;5.20;;;;;;;28.96;34.05;98091.05;105186;1265;70947;-51
2023/09/20 12:18:25;;;;;;;143.20;8.90;;;;;;;28.65;35.36;98226.88;105197;1267;64434;-53
2023/09/20 12:20:55;;;;;;;168.50;9.70;;;;;;;28.46;35.56;98313.89;105223;1264;73316;-52
2023/09/20 12:24:16;;;;;;;;;;;;;;;28.26;36.49;98458.10;102618;1292;599627;-51
2023/09/20 12:26:45;;;;;;;53.40;5.60;;;;;;;27.95;36.28;98473.67;104807;1266;61474;-53
2023/09/20 12:29:13;;;;;;;51.90;5.60;;;;;;;27.72;36.53;98528.05;104853;1270;59325;-52